• Join FlightAware (Why Join?)
  • Login
  • US Flag 
06:16AM EDT


 

Airport Tracker/Info


-or-


 

Live Flight TrackerFlight Track Log ✈ N210PM ✈ 16-Jun-2013 ✈ KDSM - KLNK

Flight Track Log - Related Links

Times and Time Zones

All times are in EDT time to prevent confusion due to time zone crossing. See the N210PM flight status page for this flight to view local times or setup timezone preferences in your user account.

Time Position Orientation Groundspeed Altitude Reporting Facility
EDT Latitude Longitude Course Direction KTS MPH feet Rate Location/Type
11:54AM 41.5517 -93.6656 268° West 142 163 1,500  Level Minneapolis Center
11:55AM 41.5500 -93.7294 268° West 181 208 3,400 2,520 Climbing Minneapolis Center
11:56AM 41.5339 -93.8028 254° West 191 220 6,400 2,640 Climbing Minneapolis Center
11:57AM 41.5197 -93.8681 254° West 185 213 8,900 2,220 Climbing Minneapolis Center
11:58AM 41.5083 -93.9267 255° West 182 209 11,000 2,040 Climbing Minneapolis Center
11:59AM 41.4936 -93.9917 253° West 183 211 13,200 2,160 Climbing Minneapolis Center
12:00PM 41.4767 -94.0708 254° West 186 214 15,500 1,260 Climbing Minneapolis Center
12:01PM 41.4617 -94.1442 255° West 200 230 15,900 240 Climbing Minneapolis Center
12:02PM 41.4389 -94.2400 252° West 264 304 16,000  Climbing Minneapolis Center
12:03PM 41.4142 -94.3436 252° West 288 331 15,900 -60 Descending Minneapolis Center
12:04PM 41.3875 -94.4683 254° West 290 334 15,900  Level Minneapolis Center
12:05PM 41.3644 -94.5733 254° West 293 337 16,000  Climbing Minneapolis Center
12:06PM 41.3417 -94.6786 254° West 295 339 16,000  Level Minneapolis Center
12:07PM 41.3233 -94.7625 254° West 296 341 16,000  Level Minneapolis Center
12:08PM 41.2942 -94.8886 253° West 296 341 16,000  Level Minneapolis Center
12:09PM 41.2706 -94.9931 253° West 297 342 16,000  Level Minneapolis Center
12:10PM 41.2464 -95.0981 253° West 297 342 16,000  Level Minneapolis Center
12:11PM 41.2175 -95.2250 253° West 298 343 16,000  Level Minneapolis Center
12:13PM 41.1928 -95.3306 253° West 298 343 16,000 -60 Level Minneapolis Center
12:14PM 41.1725 -95.4433 257° West 297 342 15,900 -540 Descending Minneapolis Center
12:14PM 41.1511 -95.5292 252° West 293 337 15,000 -1,020 Descending Minneapolis Center
12:15PM 41.1233 -95.6406 252° West 289 333 14,000 -1,020 Descending Minneapolis Center
12:16PM 41.0986 -95.7403 252° West 287 330 13,000 -1,020 Descending Minneapolis Center
12:18PM 41.0686 -95.8544 251° West 283 326 11,800 -1,020 Descending Minneapolis Center
12:18PM 41.0472 -95.9397 252° West 284 327 11,000 -780 Descending Minneapolis Center
12:19PM 41.0439 -95.9608 258° West 280 322 11,000  Level Minneapolis Center
12:20PM 41.0208 -96.0506 251° West 252 290 11,000 -420 Level Minneapolis Center
12:20PM 41.0025 -96.1217 251° West 259 298 10,300 -840 Descending Minneapolis Center
12:21PM 40.9994 -96.1442 260° West 259 298 10,100 -900 Descending Minneapolis Center
12:22PM 40.9775 -96.2397 253° West 267 307 9,100 -1,320 Descending Minneapolis Center
12:23PM 40.9506 -96.3261 248° West 277 319 7,700 -1,440 Descending Minneapolis Center
12:23PM 40.9536 -96.3369 290° West 273 314 7,600 -1,440 Descending Minneapolis Center
12:24PM 40.9314 -96.4219 251° West 265 305 6,300 -1,500 Descending Minneapolis Center
12:24PM 40.9353 -96.4317 298° West 271 312 6,100 -1,380 Descending Minneapolis Center
12:25PM 40.9225 -96.5167 259° West 267 307 4,900 -1,380 Descending Minneapolis Center
12:25PM 40.9289 -96.5300 302° West 268 308 4,700 -1,380 Descending Minneapolis Center
12:26PM 40.9136 -96.6114 256° West 265 305 3,500 -1,560 Descending Minneapolis Center
12:26PM 40.9211 -96.6467 286° West 266 306 3,100 -600 Descending Minneapolis Center
12:27PM 40.9022 -96.7008 245° Southwest 213 245 2,900 -420 Descending Minneapolis Center
12:27PM 40.9097 -96.7281 290° West 245 282 2,700 -840 Descending Minneapolis Center
12:28PM 40.8808 -96.7528 213° Southwest 173 199 1,800 -900 Descending Minneapolis Center